Latest Weather Observations for Cabramurra

IDN60901

Issued at 5:51 pm EST Sunday 29 May 2016 (issued every 10 minutes, with the page automatically refreshed every 10 minutes)

About weather observations | Map of Canberra area stations | Latest observations for Canberra area | Other Formats
Station Details ID: 072161 Name: CABRAMURRA SMHEA AWS Lat: -35.94 Lon: 148.38 Height: 1482.4 m
Data from the previous 72 hours. | See also: Recent months at Cabramurra
Date/Time
EST
Tmp

°C
App
Tmp
°C
Dew
Point
°C
Rel
Hum
%
Delta-T

°C
Wind Press
QNH
hPa
Press
MSL
hPa
Rain
since
9 am
mm
Dir
 
Spd
km/h
Gust
km/h
Spd
kts
Gust
kts
29/05:30pm 0.2 -3.1 0.1 99 0.0 WSW 7 9 4 5 - - 0.0
29/05:00pm 0.6 -2.6 0.5 99 0.0 W 7 9 4 5 - - 0.0
29/04:30pm 1.0 -2.3 0.0 93 0.4 W 7 11 4 6 - - 0.0
29/04:00pm 1.3 -1.4 0.3 93 0.4 W 4 9 2 5 - - 0.0
29/03:30pm 1.3 -2.5 -0.5 88 0.7 W 9 15 5 8 - - 0.0
29/03:00pm 1.5 -2.6 0.0 90 0.6 WNW 11 15 6 8 - - 0.0
29/02:30pm 2.7 -1.7 0.1 83 1.1 WNW 13 20 7 11 - - 0.0
29/02:00pm 2.6 -1.9 0.0 83 1.1 WNW 13 17 7 9 - - 0.0
29/01:30pm 3.8 -0.6 0.3 78 1.5 W 13 22 7 12 - - 0.0
29/01:00pm 2.1 -1.6 0.0 86 0.9 WNW 9 15 5 8 - - 0.0
29/12:30pm 1.8 -2.7 -0.3 86 0.8 NW 13 19 7 10 - - 0.0
29/12:00pm 2.0 -2.1 0.1 87 0.8 WNW 11 17 6 9 - - 0.0
29/11:30am 1.5 -2.9 0.2 91 0.5 WNW 13 20 7 11 - - 0.0
29/11:00am 1.3 -2.7 0.4 94 0.4 NNW 11 15 6 8 - - 0.0
29/10:30am 1.4 -2.4 -0.7 86 0.8 NW 9 13 5 7 - - 0.0
29/10:00am 1.6 -2.2 -1.1 82 1.1 SW 9 11 5 6 - - 0.0
29/09:30am 1.0 -2.5 -1.2 85 0.9 SW 7 9 4 5 - - 0.0
29/09:00am 0.4 -3.1 -1.7 86 0.8 SW 7 9 4 5 - - 0.0
29/08:30am -0.2 -4.1 -1.5 91 0.5 SSW 9 15 5 8 - - 0.0
29/08:00am -0.9 -4.9 -2.2 91 0.4 SW 9 13 5 7 - - 0.0
29/07:30am -1.4 -6.1 -1.5 99 0.0 SSW 13 15 7 8 - - 0.0
29/07:00am -1.1 -5.7 -1.2 99 0.0 SSW 13 17 7 9 - - 0.0
29/06:30am -1.2 -5.8 -1.3 99 0.0 SSW 13 17 7 9 - - 0.0
29/06:00am -1.3 -6.3 -1.4 99 0.0 SSW 15 22 8 12 - - 0.0
29/05:30am -1.0 -6.4 -1.1 99 0.0 SSW 17 24 9 13 - - 0.0
29/05:00am -0.9 -5.1 -1.0 99 0.0 SSW 11 15 6 8 - - 0.0
29/04:30am -0.3 -4.8 -0.4 99 0.0 WSW 13 20 7 11 - - 0.0
29/04:00am -0.2 -4.7 -0.3 99 0.0 W 13 24 7 13 - - 0.0
29/03:30am -0.1 -4.2 -0.2 99 0.0 WSW 11 19 6 10 - - 0.0
29/03:00am -0.1 -5.0 -0.2 99 0.0 W 15 24 8 13 - - 0.0
29/02:30am -0.1 -4.2 -0.2 99 0.0 SW 11 15 6 8 - - 0.0
29/02:00am -0.2 -4.3 -0.5 98 0.1 SW 11 19 6 10 - - 0.0
29/01:30am -0.3 -5.6 -0.7 97 0.1 SW 17 24 9 13 - - 0.0
29/01:00am -0.1 -5.0 -0.7 96 0.2 SW 15 22 8 12 - - 0.0
29/12:30am -0.1 -4.7 -0.8 95 0.3 SSW 13 20 7 11 - - 0.0
29/12:00am -0.2 -4.4 -1.0 94 0.3 SW 11 15 6 8 - - 0.0
 
Date/Time
EST
Tmp

°C
App
Tmp
°C
Dew
Point
°C
Rel
Hum
%
Delta-T

°C
Wind Press
QNH
hPa
Press
MSL
hPa
Rain
since
9 am
mm
Dir
 
Spd
km/h
Gust
km/h
Spd
kts
Gust
kts
28/11:30pm -0.1 -4.7 -0.8 95 0.3 SW 13 19 7 10 - - 0.0
28/11:00pm -0.3 -4.8 -0.4 99 0.0 SW 13 17 7 9 - - 0.0
28/10:30pm -0.5 -4.7 -0.6 99 0.0 WSW 11 17 6 9 - - 0.0
28/10:00pm -0.2 -4.7 -0.3 99 0.0 SW 13 17 7 9 - - 0.0
28/09:30pm 0.1 -4.4 0.0 99 0.0 WSW 13 17 7 9 - - 0.0
28/09:00pm 0.7 -3.7 0.6 99 0.0 WSW 13 20 7 11 - - 0.0
28/08:30pm 0.7 -3.7 0.6 99 0.0 WSW 13 20 7 11 - - 0.0
28/08:00pm 0.8 -3.5 0.7 99 0.0 SW 13 19 7 10 - - 0.0
28/07:30pm 1.2 -3.8 1.1 99 0.0 WSW 17 24 9 13 - - 0.0
28/07:00pm 1.1 -3.6 1.0 99 0.0 WSW 15 24 8 13 - - 0.0
28/06:30pm 1.3 -2.6 1.2 99 0.0 W 11 20 6 11 - - 0.0
28/06:00pm 1.4 -3.6 1.3 99 0.0 WSW 17 24 9 13 - - 0.0
28/05:30pm 1.1 -4.5 1.0 99 0.0 WSW 20 32 11 17 - - 0.0
28/05:00pm 1.2 -4.3 0.3 94 0.4 WSW 19 28 10 15 - - 0.0
28/04:30pm 2.4 -3.5 -1.0 78 1.4 W 20 30 11 16 - - 0.0
28/04:00pm 3.2 -2.5 -0.4 77 1.5 W 19 30 10 16 - - 0.0
28/03:30pm 3.7 -0.9 -0.9 72 1.9 W 13 20 7 11 - - 0.0
28/03:00pm 3.4 -1.6 -1.3 71 1.9 W 15 20 8 11 - - 0.0
28/02:30pm 3.6 -1.5 -1.7 68 2.1 W 15 22 8 12 - - 0.0
28/02:00pm 2.6 -2.3 -0.7 79 1.3 WSW 15 26 8 14 - - 0.0
28/01:30pm 1.9 -4.0 -0.7 83 1.0 W 20 32 11 17 - - 0.0
28/01:00pm 3.1 -2.8 -2.2 68 2.1 W 19 28 10 15 - - 0.0
28/12:30pm 3.5 -1.7 0.2 79 1.4 W 17 24 9 13 - - 0.0
28/12:00pm 4.5 0.4 2.2 85 1.0 WNW 13 17 7 9 - - 0.0
28/11:30am 4.4 0.1 3.1 91 0.6 WSW 15 22 8 12 - - 0.0
28/11:00am 4.2 0.5 4.2 100 0.0 WSW 13 17 7 9 - - 0.0
28/10:30am 3.5 -0.4 3.5 100 0.0 SW 13 19 7 10 - - 0.0
28/10:00am 2.8 -1.2 2.8 100 0.0 SSW 13 17 7 9 - - 0.0
28/09:30am 2.5 -1.2 2.5 100 0.0 S 11 15 6 8 - - 0.0
28/09:00am 2.4 -1.3 2.4 100 0.0 S 11 15 6 8 - - 0.0
28/08:30am 1.5 -2.0 1.5 100 0.0 SSW 9 11 5 6 - - 0.0
28/08:00am 1.4 -2.5 1.4 100 0.0 SSW 11 13 6 7 - - 0.0
28/07:30am 1.1 -2.8 1.1 100 0.0 SSW 11 17 6 9 - - 0.0
28/07:00am 1.1 -2.4 1.1 100 0.0 SSE 9 13 5 7 - - 0.0
28/06:30am 1.0 -2.2 1.0 100 0.0 SW 7 11 4 6 - - 0.0
28/06:00am 1.2 -3.1 1.2 100 0.0 SW 13 19 7 10 - - 0.0
28/05:30am 1.0 -2.5 1.0 100 0.0 SSW 9 15 5 8 - - 0.0
28/05:00am 0.8 -2.8 0.8 100 0.0 SW 9 15 5 8 - - 0.0
28/04:30am 0.6 -3.4 0.6 100 0.0 W 11 15 6 8 - - 0.0
28/04:00am 0.2 -3.5 0.2 100 0.0 W 9 13 5 7 - - 0.0
28/03:30am -0.2 -2.2 -0.2 100 0.0 CALM 0 0 0 0 - - 0.0
28/03:00am -0.5 -2.6 -0.5 100 0.0 CALM 0 0 0 0 - - 0.0
28/02:30am -1.2 -3.4 -1.2 100 0.0 CALM 0 0 0 0 - - 0.0
28/02:00am -1.5 -3.7 -1.5 100 0.0 CALM 0 0 0 0 - - 0.0
28/01:30am -1.0 -3.1 -1.0 100 0.0 CALM 0 0 0 0 - - 0.0
28/01:00am -1.3 -3.5 -1.3 100 0.0 CALM 0 0 0 0 - - 0.0
28/12:30am -1.3 -3.5 -1.3 100 0.0 CALM 0 0 0 0 - - 0.0
28/12:00am -0.2 -2.2 -0.2 100 0.0 CALM 0 0 0 0 - - 0.0
 
Date/Time
EST
Tmp

°C
App
Tmp
°C
Dew
Point
°C
Rel
Hum
%
Delta-T

°C
Wind Press
QNH
hPa
Press
MSL
hPa
Rain
since
9 am
mm
Dir
 
Spd
km/h
Gust
km/h
Spd
kts
Gust
kts
27/11:30pm -0.4 -2.4 -0.4 100 0.0 CALM 0 0 0 0 - - 0.0
27/11:00pm -0.4 -2.4 -0.4 100 0.0 CALM 0 0 0 0 - - 0.0
27/10:30pm -0.4 -2.4 -0.4 100 0.0 CALM 0 0 0 0 - - 0.0
27/10:00pm -0.3 -6.1 -0.3 100 0.0 W 20 30 11 16 - - 0.0
27/09:30pm -0.1 -5.3 -0.1 100 0.0 W 17 26 9 14 - - 0.0
27/09:00pm -0.2 -6.0 -0.2 100 0.0 W 20 32 11 17 - - 0.0
27/08:30pm -0.1 -5.9 -0.1 100 0.0 W 20 35 11 19 - - 0.0
27/08:00pm 0.0 -5.6 0.0 100 0.0 W 19 26 10 14 - - 0.0
27/07:30pm 0.1 -5.5 0.1 100 0.0 W 19 32 10 17 - - 0.0
27/07:00pm 0.0 -6.2 0.0 100 0.0 W 22 39 12 21 - - 0.0
27/06:30pm 0.1 -6.4 0.1 100 0.0 W 24 39 13 21 - - 0.0
27/06:00pm 0.1 -6.4 0.1 100 0.0 W 24 39 13 21 - - 0.0
27/05:30pm 0.3 -5.8 0.3 100 0.0 W 22 41 12 22 - - 0.0
27/05:00pm 0.4 -6.8 0.4 100 0.0 W 28 46 15 25 - - 0.0
27/04:59pm 0.4 -6.8 0.4 100 0.0 W 28 46 15 25 - - 0.0
27/04:30pm 0.3 -7.0 0.3 100 0.0 W 28 41 15 22 - - 0.0
27/04:10pm 0.4 -6.8 0.4 100 0.0 W 28 48 15 26 - - 0.0
27/04:00pm 0.4 -6.1 0.4 100 0.0 W 24 39 13 21 - - 0.0
27/03:30pm 0.2 -7.1 0.2 100 0.0 W 28 43 15 23 - - 0.0
27/03:21pm 0.2 -7.1 0.2 100 0.0 W 28 46 15 25 - - 0.0
27/03:00pm 0.2 -6.7 0.2 100 0.0 W 26 46 14 25 - - 0.0
27/02:31pm 0.0 -7.3 0.0 100 0.0 W 28 52 15 28 - - 0.0
27/02:30pm 0.0 -6.9 0.0 100 0.0 WSW 26 52 14 28 - - 0.0
27/02:00pm 0.0 -7.3 0.0 100 0.0 W 28 46 15 25 - - 0.0
27/01:31pm -0.1 -7.4 -0.1 100 0.0 W 28 46 15 25 - - 0.0
27/01:30pm -0.1 -7.4 -0.1 100 0.0 W 28 44 15 24 - - 0.0
27/01:19pm -0.1 -4.2 -0.1 100 0.0 W 11 48 6 26 - - 0.0
27/01:17pm -0.1 -3.2 -0.1 100 0.0 W 6 44 3 24 - - 0.0
27/01:00pm -0.1 -2.1 -0.1 100 0.0 CALM 0 0 0 0 - - 0.0
27/12:30pm -0.1 -2.1 -0.1 100 0.0 CALM 0 0 0 0 - - 0.0
27/12:00pm -0.4 -2.4 -0.4 100 0.0 CALM 0 0 0 0 - - 0.0
27/11:30am -0.5 -2.6 -0.5 100 0.0 CALM 0 0 0 0 - - 0.0
27/11:00am -0.6 -2.7 -0.6 100 0.0 CALM 0 0 0 0 - - 0.0
27/10:30am -0.7 -2.8 -0.7 100 0.0 CALM 0 0 0 0 - - 0.0
27/10:00am -0.6 -2.7 -0.6 100 0.0 CALM 0 0 0 0 - - 0.0
27/09:30am -0.6 -2.7 -0.6 100 0.0 CALM 0 0 0 0 - - 0.0
27/09:00am -0.6 -2.7 -0.6 100 0.0 CALM 0 0 0 0 - - 22.2
27/08:30am -0.5 -2.6 -0.5 100 0.0 CALM 0 0 0 0 - - 22.2
27/08:00am -0.4 -2.4 -0.4 100 0.0 CALM 0 0 0 0 - - 22.2
27/07:30am -0.3 -2.3 -0.3 100 0.0 CALM 0 0 0 0 - - 22.2
27/07:00am -0.2 -2.2 -0.2 100 0.0 CALM 0 0 0 0 - - 22.2
27/06:30am -0.2 -7.9 -0.2 100 0.0 W 30 54 16 29 - - 22.2
27/06:06am -0.3 -8.0 -0.3 100 0.0 W 30 48 16 26 - - 22.2
27/06:00am 0.0 -7.7 0.0 100 0.0 W 30 46 16 25 - - 22.2
27/05:30am 0.0 -8.3 0.0 100 0.0 W 33 56 18 30 - - 22.2
27/05:00am 0.2 -7.1 0.2 100 0.0 W 28 46 15 25 - - 22.2
27/04:30am 0.3 -8.3 0.3 100 0.0 W 35 50 19 27 - - 22.2
27/04:13am 0.4 -7.8 0.4 100 0.0 W 33 52 18 28 - - 22.2
27/04:00am 0.5 -8.1 0.5 100 0.0 W 35 52 19 28 - - 22.2
27/03:35am 0.7 -7.3 0.7 100 0.0 W 32 50 17 27 - - 22.2
27/03:30am 0.7 -7.3 0.7 100 0.0 W 32 48 17 26 - - 22.2
27/03:09am 0.9 -6.3 0.9 100 0.0 W 28 46 15 25 - - 22.2
27/03:00am 0.9 -6.3 0.9 100 0.0 W 28 43 15 23 - - 22.2
27/02:35am 1.2 -6.3 1.2 100 0.0 W 30 48 16 26 - - 22.2
27/02:30am 1.2 -6.7 1.2 100 0.0 W 32 48 17 26 - - 22.2
27/02:04am 1.3 -5.8 1.3 100 0.0 W 28 48 15 26 - - 22.2
27/02:00am 1.4 -4.9 1.4 100 0.0 W 24 43 13 23 - - 22.2
27/01:33am 1.5 -6.0 1.5 100 0.0 W 30 48 16 26 - - 22.2
27/01:30am 1.5 -6.3 1.5 100 0.0 W 32 48 17 26 - - 22.2
27/01:00am 1.7 -5.7 1.7 100 0.0 W 30 48 16 26 - - 22.2
27/12:30am 1.9 -6.1 1.9 100 0.0 W 33 59 18 32 - - 22.2
27/12:16am 2.0 -5.0 2.0 100 0.0 W 28 50 15 27 - - 22.2
27/12:00am 2.1 -5.3 2.1 100 0.0 WNW 30 43 16 23 - - 22.2
 
Date/Time
EST
Tmp

°C
App
Tmp
°C
Dew
Point
°C
Rel
Hum
%
Delta-T

°C
Wind Press
QNH
hPa
Press
MSL
hPa
Rain
since
9 am
mm
Dir
 
Spd
km/h
Gust
km/h
Spd
kts
Gust
kts
26/11:30pm 2.3 -5.4 2.3 100 0.0 W 32 54 17 29 - - 22.2
26/11:18pm 2.3 -5.4 2.3 100 0.0 W 32 50 17 27 - - 22.0
26/11:00pm 2.3 -4.6 2.3 100 0.0 W 28 43 15 23 - - 21.0
26/10:30pm 2.5 -5.2 2.5 100 0.0 W 32 50 17 27 - - 20.0
26/10:00pm 2.6 -4.3 2.6 100 0.0 W 28 46 15 25 - - 19.2
26/09:32pm 2.6 -5.0 2.6 100 0.0 W 32 52 17 28 - - 19.0
26/09:30pm 2.6 -5.0 2.6 100 0.0 W 32 48 17 26 - - 19.0
26/09:00pm 2.6 -4.7 2.6 100 0.0 WNW 30 56 16 30 - - 17.4
26/08:58pm 2.5 -4.4 2.5 100 0.0 WNW 28 56 15 30 - - 17.4
26/08:30pm 2.4 -3.8 2.4 100 0.0 WNW 24 43 13 23 - - 15.0
26/08:00pm 2.2 -6.1 2.2 100 0.0 W 35 54 19 29 - - 14.0
26/07:30pm 2.6 -5.6 2.6 100 0.0 W 35 56 19 30 - - 14.0
26/07:00pm 2.6 -5.0 2.6 100 0.0 W 32 65 17 35 - - 14.0
26/06:39pm 2.7 -5.1 2.7 100 0.0 W 33 52 18 28 - - 13.8
26/06:30pm 2.9 -4.9 2.9 100 0.0 W 33 48 18 26 - - 13.6
26/06:00pm 3.1 -5.4 3.1 100 0.0 W 37 63 20 34 - - 13.6

Latest Capital City Observations: Canberra | Sydney | Melbourne | Brisbane | Adelaide | Perth | Hobart | Darwin

Other Formats:

Comma delimited format used in spreadsheet applications
http://www.bom.gov.au/fwo/IDN60903/IDN60903.95916.axf

JavaScript Object Notation format (JSON) in row-major order
http://www.bom.gov.au/fwo/IDN60903/IDN60903.95916.json